Naples, Italy

5:57 AM CET on February 11, 2016 (GMT +0100)
Capodichino Mil | | Change Station
CLOSE
Current Station
Airport
Location: Naples,
Elevation: 292 ft
Nearby Weather Stations

Elev 292 ft 40.88 °N, 14.29 °E | Updated 7 minutes ago

Drizzle
Drizzle
50 °F
Feels Like 50 °F
N
2
Wind Variable Wind from Variable

Today
High -- | Low -- °F
--% Chance of Precip.
Yesterday
High -- | Low -- °F
Precip. -- in
Pressure 29.74 in
Visibility 6.2 miles
Clouds Mostly Cloudy 5000 ft
Dew Point 48 °F
Humidity 94%
Rainfall 0.00 in
Snow Depth Not available.
7:03 AM 5:31 PM
Waxing Crescent, 9% visible
METAR LIRN 110450Z VRB02KT 9999 DZ BKN050 10/09 Q1007 NOSIG
Pressure 29.74 in
Visibility 6.2 miles
Clouds Mostly Cloudy 5000 ft
Dew Point 48 °F
Humidity 94%
Rainfall 0.00 in
Snow Depth Not available.
7:03 AM 5:31 PM
Waxing Crescent, 9% visible
METAR LIRN 110450Z VRB02KT 9999 DZ BKN050 10/09 Q1007 NOSIG

10-Day Weather Forecast

Almanac

Astronomy

Feb. 11, 2016 Rise Set
Actual Time
Civil Twilight
Nautical Twilight
Astronomical Twilight
Moon
Length of Visible Light
Length of Day
Tomorrow will be .
, % of the Moon is Illuminated

Today's Extremes

Country Highs Country Lows

Community

WunderPhotos

Upload Photos

1,892,015 photos uploaded!

WunderBlog® & News

Nearby

Air Quality

  Air Quality AQ Index Pollutant
Not available.

Snow Depth

Station Depth Elevation

Earthquake Activity

City Distance Mag. Time & Date
Minimum magnitude displayed is 2.5.

Coastal Water Temperatures

Place Temperature

Stations

Nearby Weather Stations

Station Location Temp. Windchill Dew Point Humidity Wind Precip. Elev Updated Type